Time;durP1;ratioP1;P1;durP2;ratioP2;P2;SDS_P1;SDS_P2;PMS_P1;PMS_P2;Temp;Humidity;BMP_temperature;BMP_pressure;BME280_temperature;BME280_humidity;BME280_pressure;Samples;Min_cycle;Max_cycle;Signal;HPM_P1;HPM_P2
2021/07/30 00:02:14;;;;;;;1.33;1.23;;;16.60;99.90;;;;;;4794507;29;20845;-78
2021/07/30 00:04:40;;;;;;;1.17;1.15;;;16.60;99.90;;;;;;4764742;29;20422;-79
2021/07/30 00:07:05;;;;;;;1.57;1.40;;;16.50;99.90;;;;;;4793125;29;20463;-78
2021/07/30 00:09:31;;;;;;;1.77;1.20;;;16.50;99.90;;;;;;4805222;29;20436;-77
2021/07/30 00:11:56;;;;;;;1.23;1.20;;;16.40;99.90;;;;;;4799928;29;20411;-79
2021/07/30 00:14:22;;;;;;;2.43;1.30;;;16.30;99.90;;;;;;4800104;29;20440;-79
2021/07/30 00:16:48;;;;;;;1.20;1.20;;;16.30;99.90;;;;;;4778401;29;20433;-78
2021/07/30 00:19:13;;;;;;;1.40;1.17;;;16.30;99.90;;;;;;4782563;29;20403;-81
2021/07/30 00:21:39;;;;;;;1.20;1.20;;;16.30;99.90;;;;;;4793913;29;20435;-78
2021/07/30 00:24:05;;;;;;;1.48;1.38;;;16.30;99.90;;;;;;4785177;29;20415;-78
2021/07/30 00:26:30;;;;;;;1.40;1.30;;;16.30;99.90;;;;;;4787190;29;20515;-78
2021/07/30 00:28:56;;;;;;;1.48;1.38;;;16.20;99.90;;;;;;4786181;29;20432;-78
2021/07/30 00:31:22;;;;;;;1.40;1.30;;;16.20;99.90;;;;;;4775321;29;20479;-79
2021/07/30 00:33:47;;;;;;;1.30;1.20;;;16.10;99.90;;;;;;4785665;29;21132;-79
2021/07/30 00:36:13;;;;;;;1.50;1.40;;;16.10;99.90;;;;;;4779085;29;20808;-78
2021/07/30 00:38:38;;;;;;;1.30;1.07;;;16.10;99.90;;;;;;4790985;29;20411;-77
2021/07/30 00:41:04;;;;;;;1.60;1.50;;;16.00;99.90;;;;;;4818930;29;20490;-78
2021/07/30 00:43:30;;;;;;;1.38;1.27;;;16.00;99.90;;;;;;4791664;29;20426;-79
2021/07/30 00:45:56;;;;;;;1.30;1.20;;;16.00;99.90;;;;;;4761831;29;20520;-77
2021/07/30 00:48:21;;;;;;;1.40;1.30;;;16.00;99.90;;;;;;4786471;29;20422;-78
2021/07/30 00:50:47;;;;;;;1.43;1.23;;;16.00;99.90;;;;;;4785075;29;20418;-78
2021/07/30 00:53:16;;;;;;;1.25;1.23;;;16.00;99.90;;;;;;4784657;29;20420;-78
2021/07/30 00:55:42;;;;;;;1.30;1.20;;;16.00;99.90;;;;;;4799580;29;20419;-78
2021/07/30 00:58:07;;;;;;;1.15;1.15;;;16.00;99.90;;;;;;4775425;29;20443;-78
2021/07/30 01:00:33;;;;;;;1.67;1.40;;;15.90;99.90;;;;;;4781828;29;20417;-78
2021/07/30 01:03:00;;;;;;;1.25;1.25;;;15.90;99.90;;;;;;4781926;29;20915;-78
2021/07/30 01:05:27;;;;;;;1.05;1.05;;;15.90;99.90;;;;;;4770113;29;20408;-78
2021/07/30 01:07:53;;;;;;;1.10;1.10;;;15.80;99.90;;;;;;4780559;29;20829;-78
2021/07/30 01:10:18;;;;;;;1.27;1.20;;;15.80;99.90;;;;;;4791341;29;20403;-77
2021/07/30 01:12:44;;;;;;;1.60;1.45;;;15.80;99.90;;;;;;4785280;29;20415;-78
2021/07/30 01:15:10;;;;;;;1.10;1.10;;;15.80;99.90;;;;;;4796388;29;20417;-79
2021/07/30 01:17:36;;;;;;;1.05;1.02;;;15.80;99.90;;;;;;4779007;29;20427;-78
2021/07/30 01:20:02;;;;;;;1.90;1.50;;;15.80;99.90;;;;;;4796914;29;20420;-78
2021/07/30 01:22:31;;;;;;;1.30;1.30;;;15.80;99.90;;;;;;4792951;29;20413;-78
2021/07/30 01:24:56;;;;;;;1.48;1.38;;;15.70;99.90;;;;;;4787424;29;20406;-78
2021/07/30 01:27:22;;;;;;;1.50;1.30;;;15.60;99.90;;;;;;4783795;29;20431;-79
2021/07/30 01:29:47;;;;;;;1.30;1.30;;;15.60;99.90;;;;;;4782833;29;20423;-76
2021/07/30 01:32:14;;;;;;;1.43;1.33;;;15.50;99.90;;;;;;4791951;29;20761;-79
2021/07/30 01:34:39;;;;;;;1.73;1.40;;;15.50;99.90;;;;;;4766895;29;20489;-77
2021/07/30 01:37:05;;;;;;;1.42;1.33;;;15.50;99.90;;;;;;4783060;29;20415;-78
2021/07/30 01:39:31;;;;;;;1.53;1.43;;;15.50;99.90;;;;;;4784336;29;20475;-78
2021/07/30 01:41:56;;;;;;;1.73;1.63;;;15.40;99.90;;;;;;4782214;29;20433;-77
2021/07/30 01:44:22;;;;;;;1.10;1.10;;;15.40;99.90;;;;;;4779101;29;20503;-77
2021/07/30 01:46:48;;;;;;;1.40;1.30;;;15.40;99.90;;;;;;4785765;29;20437;-77
2021/07/30 01:49:13;;;;;;;1.25;1.15;;;15.40;99.90;;;;;;4785294;29;20411;-78
2021/07/30 01:51:39;;;;;;;1.23;1.23;;;15.40;99.90;;;;;;4782681;29;20420;-78
2021/07/30 01:54:06;;;;;;;1.48;1.38;;;15.40;99.90;;;;;;4784225;29;20420;-81
2021/07/30 01:56:32;;;;;;;1.27;1.10;;;15.40;99.90;;;;;;4784511;29;20413;-87
2021/07/30 01:58:58;;;;;;;1.60;1.35;;;15.40;99.90;;;;;;4800136;29;20411;-80
2021/07/30 02:01:24;;;;;;;1.27;1.27;;;15.40;99.90;;;;;;4770841;29;20458;-79
2021/07/30 02:03:49;;;;;;;1.20;1.20;;;15.50;99.90;;;;;;4766363;29;20421;-78
2021/07/30 02:06:15;;;;;;;1.45;1.35;;;15.40;99.90;;;;;;4803054;29;20425;-80
2021/07/30 02:08:43;;;;;;;1.50;1.40;;;15.50;99.90;;;;;;4797864;29;20536;-79
2021/07/30 02:11:12;;;;;;;1.48;1.38;;;15.40;99.90;;;;;;4784377;29;20434;-77
2021/07/30 02:16:22;;;;;;;1.25;1.15;;;15.40;99.90;;;;;;4782136;29;20488;-78
2021/07/30 02:18:48;;;;;;;1.48;1.38;;;15.30;99.90;;;;;;4783254;29;20507;-79
2021/07/30 02:21:15;;;;;;;1.50;1.40;;;15.30;99.90;;;;;;4781813;29;20423;-78
2021/07/30 02:23:40;;;;;;;1.50;1.40;;;15.30;99.90;;;;;;4785572;29;20464;-79
2021/07/30 02:26:06;;;;;;;1.50;1.40;;;15.30;99.90;;;;;;4776762;29;20996;-77
2021/07/30 02:28:32;;;;;;;1.40;1.30;;;15.20;99.90;;;;;;4792130;29;20452;-79
2021/07/30 02:30:57;;;;;;;1.55;1.45;;;15.20;99.90;;;;;;4773075;29;20777;-81
2021/07/30 02:33:23;;;;;;;1.37;1.33;;;15.20;99.90;;;;;;4781901;29;20434;-80
2021/07/30 02:35:48;;;;;;;1.27;1.27;;;15.20;99.90;;;;;;4798036;29;20411;-77
2021/07/30 02:38:14;;;;;;;1.33;1.23;;;15.10;99.90;;;;;;4780889;29;20419;-78
2021/07/30 02:40:40;;;;;;;1.40;1.30;;;15.10;99.90;;;;;;4795075;29;20421;-78
2021/07/30 02:43:05;;;;;;;2.50;1.48;;;15.10;99.90;;;;;;4782872;29;20427;-77
2021/07/30 02:45:31;;;;;;;1.50;1.40;;;15.10;99.90;;;;;;4788744;29;20422;-79
2021/07/30 02:47:56;;;;;;;1.20;1.20;;;15.10;99.90;;;;;;4782138;29;20416;-77
2021/07/30 02:50:22;;;;;;;1.17;1.17;;;15.10;99.90;;;;;;4779468;29;20422;-77
2021/07/30 02:52:48;;;;;;;1.37;1.27;;;15.10;99.90;;;;;;4767266;29;20406;-78
2021/07/30 02:55:13;;;;;;;1.60;1.50;;;15.20;99.90;;;;;;4767622;29;20526;-79
2021/07/30 02:57:39;;;;;;;1.30;1.30;;;15.20;99.90;;;;;;4764829;29;20450;-80
2021/07/30 03:00:05;;;;;;;1.40;1.30;;;15.30;99.90;;;;;;4764666;29;20405;-79
2021/07/30 03:02:31;;;;;;;1.40;1.40;;;15.20;99.90;;;;;;4764821;29;20421;-77
2021/07/30 03:04:57;;;;;;;1.65;1.55;;;15.20;99.90;;;;;;4776564;29;20919;-82
2021/07/30 03:07:22;;;;;;;1.50;1.40;;;15.10;99.90;;;;;;4780735;29;20844;-78
2021/07/30 03:09:48;;;;;;;1.52;1.42;;;15.10;99.90;;;;;;4782592;29;20405;-81
2021/07/30 03:12:13;;;;;;;1.50;1.40;;;15.10;99.90;;;;;;4782760;29;20411;-80
2021/07/30 03:14:39;;;;;;;2.00;1.40;;;15.10;99.90;;;;;;4765626;29;20431;-86
2021/07/30 03:17:06;;;;;;;1.35;1.30;;;15.20;99.90;;;;;;4788934;29;20420;-81
2021/07/30 03:19:32;;;;;;;1.20;1.20;;;15.20;99.90;;;;;;4807183;29;21003;-84
2021/07/30 03:21:58;;;;;;;1.75;1.25;;;15.20;99.90;;;;;;4780674;29;20411;-82
2021/07/30 03:24:23;;;;;;;1.50;1.40;;;15.20;99.90;;;;;;4777968;29;20452;-78
2021/07/30 03:26:49;;;;;;;1.20;1.20;;;15.20;99.90;;;;;;4777601;29;20464;-79
2021/07/30 03:29:14;;;;;;;2.23;1.70;;;15.20;99.90;;;;;;4783844;29;20462;-80
2021/07/30 03:31:40;;;;;;;1.30;1.30;;;15.20;99.90;;;;;;4789098;29;20425;-81
2021/07/30 03:34:06;;;;;;;1.37;1.27;;;15.20;99.90;;;;;;4797801;29;20410;-79
2021/07/30 03:36:32;;;;;;;1.55;1.45;;;15.20;99.90;;;;;;4795908;29;20955;-78
2021/07/30 03:38:57;;;;;;;1.50;1.40;;;15.20;99.90;;;;;;4785979;29;20853;-79
2021/07/30 03:41:23;;;;;;;1.98;1.85;;;15.30;99.90;;;;;;4785578;29;20436;-81
2021/07/30 03:43:49;;;;;;;1.63;1.53;;;15.30;99.90;;;;;;4785921;29;20447;-77
2021/07/30 03:46:14;;;;;;;1.45;1.35;;;15.30;99.90;;;;;;4772822;29;20459;-79
2021/07/30 03:48:40;;;;;;;1.40;1.30;;;15.30;99.90;;;;;;4786114;29;20908;-77
2021/07/30 03:51:06;;;;;;;1.60;1.50;;;15.40;99.90;;;;;;4776823;29;20771;-77
2021/07/30 03:53:31;;;;;;;2.40;1.80;;;15.40;99.90;;;;;;4766463;29;20440;-83
2021/07/30 03:55:57;;;;;;;1.50;1.40;;;15.40;99.90;;;;;;4775332;29;20425;-79
2021/07/30 03:58:23;;;;;;;1.58;1.48;;;15.40;99.90;;;;;;4775274;29;20413;-80
2021/07/30 04:00:48;;;;;;;2.87;1.80;;;15.40;99.90;;;;;;4784882;29;20424;-79
2021/07/30 04:03:14;;;;;;;1.60;1.50;;;15.40;99.90;;;;;;4771396;29;20420;-82
2021/07/30 04:05:39;;;;;;;1.50;1.40;;;15.50;99.90;;;;;;4773122;29;20430;-85
2021/07/30 04:08:06;;;;;;;1.60;1.50;;;15.30;99.90;;;;;;4784282;29;20439;-80
2021/07/30 04:10:32;;;;;;;1.40;1.30;;;15.40;99.90;;;;;;4782900;29;20413;-83
2021/07/30 04:12:58;;;;;;;1.33;1.33;;;15.40;99.90;;;;;;4785085;29;20444;-79
2021/07/30 04:15:24;;;;;;;4.43;4.03;;;15.40;99.90;;;;;;4783144;29;20420;-82
2021/07/30 04:17:50;;;;;;;3.25;2.92;;;15.40;99.90;;;;;;4792686;29;20417;-79
2021/07/30 04:20:16;;;;;;;2.25;2.03;;;15.40;99.90;;;;;;4777993;29;20440;-78
2021/07/30 04:22:41;;;;;;;1.70;1.60;;;15.50;99.90;;;;;;4786590;29;20415;-79
2021/07/30 04:25:08;;;;;;;1.80;1.70;;;15.50;99.90;;;;;;4799043;29;20417;-84
2021/07/30 04:27:33;;;;;;;1.63;1.52;;;15.60;99.90;;;;;;4784494;29;20427;-84
2021/07/30 04:29:59;;;;;;;1.60;1.50;;;15.50;99.90;;;;;;4788102;29;20411;-85
2021/07/30 04:32:25;;;;;;;3.00;1.70;;;15.60;99.90;;;;;;4799005;29;20525;-83
2021/07/30 04:34:50;;;;;;;1.67;1.57;;;15.70;99.90;;;;;;4804032;29;20427;-78
2021/07/30 04:37:16;;;;;;;1.60;1.50;;;15.70;99.90;;;;;;4796411;29;20428;-79
2021/07/30 04:39:42;;;;;;;1.65;1.55;;;15.80;99.90;;;;;;4787993;29;20423;-79
2021/07/30 04:42:08;;;;;;;1.60;1.50;;;15.80;99.90;;;;;;4781359;29;20476;-79
2021/07/30 04:44:34;;;;;;;3.13;1.55;;;15.90;99.90;;;;;;4801784;29;20423;-80
2021/07/30 04:47:00;;;;;;;2.35;1.75;;;16.00;99.90;;;;;;4796083;29;20499;-76
2021/07/30 04:49:26;;;;;;;2.13;1.63;;;16.10;99.90;;;;;;4792743;29;20925;-79
2021/07/30 04:51:53;;;;;;;1.42;1.33;;;16.10;99.90;;;;;;4804536;29;20412;-80
2021/07/30 04:54:23;;;;;;;1.50;1.40;;;16.30;99.90;;;;;;4808479;29;20889;-82
2021/07/30 04:56:53;;;;;;;1.83;1.73;;;16.40;99.90;;;;;;4760379;29;20425;-79
2021/07/30 04:59:26;;;;;;;1.83;1.73;;;16.40;99.90;;;;;;4793541;29;20970;-80
2021/07/30 05:01:54;;;;;;;2.05;1.85;;;16.50;99.90;;;;;;4788911;29;20464;-85
2021/07/30 05:04:23;;;;;;;1.75;1.65;;;16.60;99.90;;;;;;4773419;29;20457;-80
2021/07/30 05:06:56;;;;;;;1.77;1.67;;;16.70;99.90;;;;;;4782380;29;20450;-80
2021/07/30 05:09:28;;;;;;;1.40;1.30;;;16.60;99.90;;;;;;4789457;29;20427;-78
2021/07/30 05:12:10;;;;;;;1.50;1.40;;;16.80;99.90;;;;;;4746232;29;20423;-79
2021/07/30 05:14:43;;;;;;;2.00;1.70;;;17.00;99.90;;;;;;4777246;29;20492;-79
2021/07/30 05:17:12;;;;;;;1.60;1.50;;;17.00;99.90;;;;;;4792583;29;20424;-81
2021/07/30 05:19:52;;;;;;;1.70;1.60;;;17.10;99.90;;;;;;4792425;29;20411;-79
2021/07/30 05:22:18;;;;;;;5.07;1.70;;;17.20;99.90;;;;;;4786684;29;20416;-78
2021/07/30 05:24:43;;;;;;;1.60;1.50;;;17.30;99.90;;;;;;4796665;29;20423;-78
2021/07/30 05:27:09;;;;;;;2.30;1.83;;;17.40;99.90;;;;;;4774524;29;20462;-79
2021/07/30 05:29:35;;;;;;;1.93;1.73;;;17.50;99.90;;;;;;4797860;29;20413;-78
2021/07/30 05:32:00;;;;;;;3.07;1.77;;;17.60;99.90;;;;;;4802688;29;20795;-78
2021/07/30 05:34:26;;;;;;;1.70;1.60;;;17.70;99.90;;;;;;4791802;29;20411;-79
2021/07/30 05:36:52;;;;;;;2.77;1.50;;;17.80;99.90;;;;;;4789676;29;21094;-78
2021/07/30 05:39:17;;;;;;;1.70;1.60;;;17.90;99.90;;;;;;4782054;29;20423;-79
2021/07/30 05:41:43;;;;;;;1.60;1.50;;;18.10;99.90;;;;;;4776443;29;20425;-78
2021/07/30 05:44:08;;;;;;;1.47;1.37;;;18.20;99.90;;;;;;4786379;29;20845;-79
2021/07/30 05:46:37;;;;;;;5.00;1.70;;;18.20;99.90;;;;;;4795317;29;20425;-79
2021/07/30 05:49:03;;;;;;;1.98;1.63;;;18.40;99.90;;;;;;4768838;30;20409;-79
2021/07/30 05:51:28;;;;;;;1.63;1.50;;;18.50;99.90;;;;;;4765497;29;20428;-79
2021/07/30 05:53:54;;;;;;;2.92;1.60;;;18.70;99.90;;;;;;4766061;29;20481;-79
2021/07/30 05:56:20;;;;;;;1.63;1.40;;;18.70;99.90;;;;;;4787220;29;20413;-79
2021/07/30 05:58:45;;;;;;;1.40;1.30;;;18.80;99.90;;;;;;4785464;29;20423;-79
2021/07/30 06:01:12;;;;;;;1.80;1.70;;;18.90;99.90;;;;;;4792649;29;20421;-79
2021/07/30 06:03:38;;;;;;;2.03;1.42;;;19.10;99.90;;;;;;4794738;29;20473;-79
2021/07/30 06:06:03;;;;;;;1.45;1.38;;;19.30;99.90;;;;;;4780957;29;20514;-79
2021/07/30 06:08:29;;;;;;;1.47;1.37;;;19.50;99.90;;;;;;4796304;29;20402;-79
2021/07/30 06:10:55;;;;;;;1.30;1.27;;;19.50;99.90;;;;;;4790022;29;20500;-80
2021/07/30 06:13:20;;;;;;;1.60;1.50;;;19.60;99.90;;;;;;4781100;29;20433;-80
2021/07/30 06:15:46;;;;;;;1.60;1.50;;;19.70;99.90;;;;;;4775178;29;20413;-80
2021/07/30 06:18:12;;;;;;;1.40;1.20;;;19.80;99.90;;;;;;4766275;29;20417;-80
2021/07/30 06:20:37;;;;;;;1.63;1.33;;;19.90;99.90;;;;;;4795473;29;20978;-79
2021/07/30 06:23:03;;;;;;;1.40;1.30;;;20.10;99.90;;;;;;4781242;29;20924;-80
2021/07/30 06:25:29;;;;;;;1.85;1.40;;;20.20;99.90;;;;;;4774034;29;20912;-79
2021/07/30 06:27:54;;;;;;;1.50;1.40;;;20.30;99.90;;;;;;4799445;29;20485;-80
2021/07/30 06:30:20;;;;;;;1.42;1.33;;;20.40;99.90;;;;;;4763346;29;20421;-80
2021/07/30 06:32:46;;;;;;;1.60;1.50;;;20.60;99.90;;;;;;4788680;29;20423;-80
2021/07/30 06:35:15;;;;;;;1.47;1.37;;;20.70;99.90;;;;;;4778057;29;20427;-80
2021/07/30 06:37:41;;;;;;;1.40;1.30;;;20.80;99.90;;;;;;4790280;29;20429;-79
2021/07/30 06:40:07;;;;;;;1.75;1.40;;;20.80;99.90;;;;;;4781198;29;20428;-79
2021/07/30 06:42:33;;;;;;;1.90;1.40;;;21.00;99.90;;;;;;4791355;29;20931;-80
2021/07/30 06:44:59;;;;;;;1.27;1.20;;;21.10;99.90;;;;;;4783549;29;20431;-80
2021/07/30 06:47:25;;;;;;;1.50;1.38;;;21.30;99.90;;;;;;4783578;29;20412;-80
2021/07/30 06:49:50;;;;;;;1.33;1.23;;;21.40;99.90;;;;;;4793541;29;20441;-80
2021/07/30 06:52:16;;;;;;;1.33;1.25;;;21.50;99.90;;;;;;4802216;29;20416;-81
2021/07/30 06:54:42;;;;;;;1.33;1.27;;;21.60;99.90;;;;;;4788405;29;20482;-81
2021/07/30 06:57:08;;;;;;;1.40;1.30;;;21.80;99.90;;;;;;4787743;29;20995;-81
2021/07/30 06:59:34;;;;;;;1.40;1.30;;;22.00;99.90;;;;;;4801957;29;20430;-81
2021/07/30 07:02:06;;;;;;;1.20;1.20;;;22.00;99.90;;;;;;4783842;29;20448;-82
2021/07/30 07:04:32;;;;;;;1.40;1.30;;;22.00;99.90;;;;;;4789753;29;20421;-81
2021/07/30 07:06:58;;;;;;;1.40;1.30;;;22.30;99.90;;;;;;4785015;29;20943;-81
2021/07/30 07:09:24;;;;;;;1.50;1.40;;;22.50;99.90;;;;;;4815806;29;20449;-81
2021/07/30 07:11:50;;;;;;;1.10;1.10;;;22.50;99.90;;;;;;4802825;29;20450;-81
2021/07/30 07:14:16;;;;;;;1.40;1.30;;;22.70;99.90;;;;;;4801512;29;20453;-81
2021/07/30 07:16:42;;;;;;;1.60;1.50;;;22.80;99.90;;;;;;4781360;30;20425;-81
2021/07/30 07:19:09;;;;;;;1.50;1.40;;;23.00;99.90;;;;;;4786707;29;20430;-81
2021/07/30 07:21:38;;;;;;;1.33;1.23;;;23.00;99.90;;;;;;4796491;29;20411;-80
2021/07/30 07:24:05;;;;;;;1.40;1.30;;;23.30;99.90;;;;;;4801909;29;20447;-81
2021/07/30 07:26:31;;;;;;;1.30;1.20;;;23.30;99.90;;;;;;4801868;29;20420;-81
2021/07/30 07:28:57;;;;;;;1.52;1.27;;;23.40;99.90;;;;;;4800932;29;20450;-81
2021/07/30 07:31:24;;;;;;;1.02;1.02;;;23.60;99.90;;;;;;4787500;29;20411;-81
2021/07/30 07:33:50;;;;;;;2.72;1.20;;;23.50;99.90;;;;;;4760162;29;20414;-81
2021/07/30 07:36:16;;;;;;;1.25;1.15;;;23.80;99.90;;;;;;4760100;29;20408;-81
2021/07/30 07:38:43;;;;;;;1.63;1.27;;;23.80;99.90;;;;;;4797573;29;20509;-80
2021/07/30 07:41:10;;;;;;;1.73;1.30;;;23.90;99.90;;;;;;4786022;29;20460;-81
2021/07/30 07:43:36;;;;;;;1.50;1.40;;;23.90;99.90;;;;;;4799799;29;20420;-80
2021/07/30 07:46:03;;;;;;;1.17;1.10;;;23.80;99.90;;;;;;4772757;30;20431;-81
2021/07/30 07:48:29;;;;;;;1.27;1.25;;;23.80;99.90;;;;;;4796625;29;20428;-81
2021/07/30 07:50:55;;;;;;;1.17;1.17;;;24.00;99.90;;;;;;4776834;29;20424;-81
2021/07/30 07:53:22;;;;;;;1.10;1.10;;;24.20;99.90;;;;;;4776718;29;20783;-81
2021/07/30 07:55:51;;;;;;;1.38;1.27;;;24.40;99.90;;;;;;4800531;29;20474;-81
2021/07/30 07:58:17;;;;;;;1.25;1.20;;;24.50;99.90;;;;;;4770465;29;20428;-80
2021/07/30 08:00:43;;;;;;;1.50;1.40;;;24.50;99.90;;;;;;4794565;29;20415;-81
2021/07/30 08:03:10;;;;;;;1.35;1.25;;;24.60;99.90;;;;;;4793725;29;20439;-81
2021/07/30 08:05:38;;;;;;;1.58;1.35;;;24.60;99.90;;;;;;4799521;29;20413;-81
2021/07/30 08:08:04;;;;;;;1.20;1.20;;;24.70;99.90;;;;;;4782663;29;20421;-81
2021/07/30 08:10:30;;;;;;;1.30;1.20;;;24.80;99.90;;;;;;4788751;29;20430;-81
2021/07/30 08:12:57;;;;;;;1.27;1.17;;;25.10;99.90;;;;;;4803973;29;20415;-80
2021/07/30 08:15:22;;;;;;;1.20;1.20;;;25.20;99.90;;;;;;4804641;29;20977;-81
2021/07/30 08:17:49;;;;;;;1.00;1.00;;;25.20;99.90;;;;;;4800562;29;20872;-81
2021/07/30 08:20:15;;;;;;;1.20;1.10;;;25.00;99.90;;;;;;4783358;29;20430;-81
2021/07/30 08:22:43;;;;;;;1.20;1.20;;;25.10;99.90;;;;;;4766319;29;20438;-80
2021/07/30 08:25:11;;;;;;;2.10;1.17;;;25.30;99.90;;;;;;4787955;29;20783;-81
2021/07/30 08:27:37;;;;;;;1.33;1.23;;;25.30;99.90;;;;;;4782255;29;20439;-82
2021/07/30 08:30:04;;;;;;;1.38;1.27;;;25.20;99.90;;;;;;4797433;29;20457;-81
2021/07/30 08:32:36;;;;;;;1.15;1.10;;;24.90;99.90;;;;;;4797342;29;20428;-80
2021/07/30 08:35:02;;;;;;;1.33;1.23;;;24.80;99.90;;;;;;4778740;29;20511;-80
2021/07/30 08:37:28;;;;;;;1.25;1.20;;;24.50;99.90;;;;;;4773239;29;20480;-81
2021/07/30 08:39:54;;;;;;;1.13;1.02;;;24.70;99.90;;;;;;4784896;29;20993;-81
2021/07/30 08:42:20;;;;;;;1.90;1.10;;;24.50;99.90;;;;;;4794252;29;20502;-81
2021/07/30 08:44:47;;;;;;;1.00;1.00;;;24.80;99.90;;;;;;4801996;29;20435;-81
2021/07/30 08:47:19;;;;;;;1.00;0.95;;;25.30;99.90;;;;;;4786546;29;20459;-81
2021/07/30 08:49:45;;;;;;;2.22;1.33;;;25.30;99.90;;;;;;4787285;29;20433;-80
2021/07/30 08:52:12;;;;;;;0.90;0.90;;;25.50;97.80;;;;;;4792161;29;20495;-81
2021/07/30 08:54:41;;;;;;;1.33;1.23;;;25.40;99.90;;;;;;4798790;29;20428;-81
2021/07/30 08:57:08;;;;;;;1.03;1.03;;;25.50;99.60;;;;;;4783877;29;20419;-81
2021/07/30 08:59:38;;;;;;;2.10;1.10;;;25.70;99.50;;;;;;4804534;29;20458;-82
2021/07/30 09:02:33;;;;;;;1.17;1.08;;;25.70;98.40;;;;;;4778722;29;20468;-81
2021/07/30 09:06:36;;;;;;;2.40;1.25;;;25.40;97.80;;;;;;4790335;29;20437;-81
2021/07/30 09:10:06;;;;;;;0.93;0.93;;;25.40;98.80;;;;;;4797245;29;20470;-81
2021/07/30 09:17:30;;;;;;;0.90;0.90;;;25.40;98.00;;;;;;4798398;29;20924;-81
2021/07/30 09:21:24;;;;;;;1.45;1.35;;;25.50;98.40;;;;;;4811851;29;20508;-81
2021/07/30 09:24:15;;;;;;;2.00;1.23;;;25.30;96.40;;;;;;4776238;29;20504;-81
2021/07/30 09:26:56;;;;;;;2.50;1.10;;;25.50;97.20;;;;;;4781643;29;20439;-81
2021/07/30 09:29:35;;;;;;;1.83;1.13;;;25.60;97.20;;;;;;4779565;29;20698;-82
2021/07/30 09:32:13;;;;;;;1.05;1.05;;;25.40;96.00;;;;;;4801814;29;20419;-81
2021/07/30 09:34:48;;;;;;;1.30;1.20;;;25.50;96.30;;;;;;4790754;29;20491;-82
2021/07/30 09:37:22;;;;;;;1.40;1.30;;;25.60;97.80;;;;;;4804697;29;20432;-82
2021/07/30 09:43:24;;;;;;;1.55;1.23;;;25.60;97.90;;;;;;4799591;29;20427;-80
2021/07/30 09:46:09;;;;;;;1.97;1.30;;;25.70;98.40;;;;;;4770397;29;20881;-81
2021/07/30 09:49:01;;;;;;;1.05;1.05;;;25.70;97.30;;;;;;4764375;29;20428;-81
2021/07/30 09:51:52;;;;;;;1.27;1.17;;;25.60;96.90;;;;;;4755266;29;20474;-81
2021/07/30 09:54:20;;;;;;;1.35;1.08;;;25.60;97.80;;;;;;4793519;29;20411;-81
2021/07/30 09:56:56;;;;;;;1.20;1.10;;;25.60;96.00;;;;;;4779241;29;20486;-80
2021/07/30 09:59:25;;;;;;;0.80;0.80;;;25.70;96.30;;;;;;4781085;29;20469;-81
2021/07/30 10:01:56;;;;;;;3.50;1.20;;;25.70;96.30;;;;;;4775257;29;20415;-81
2021/07/30 10:04:54;;;;;;;1.08;1.00;;;25.90;97.00;;;;;;4803747;29;20478;-81
2021/07/30 10:07:24;;;;;;;1.33;1.23;;;25.80;95.30;;;;;;4806208;29;20516;-82
2021/07/30 10:10:10;;;;;;;2.53;1.30;;;25.70;96.70;;;;;;4802745;29;20446;-81
2021/07/30 10:15:27;;;;;;;1.15;1.08;;;25.40;95.50;;;;;;4797278;29;20445;-81
2021/07/30 10:17:58;;;;;;;1.13;1.13;;;25.40;96.40;;;;;;4790129;29;20469;-81
2021/07/30 10:20:31;;;;;;;1.90;1.17;;;25.30;98.00;;;;;;4788123;29;20426;-80
2021/07/30 10:23:11;;;;;;;1.08;1.08;;;25.50;96.90;;;;;;4782516;29;20429;-80
2021/07/30 10:25:59;;;;;;;1.30;1.20;;;25.60;96.00;;;;;;4806754;29;20554;-81
2021/07/30 10:28:32;;;;;;;1.85;1.35;;;25.60;96.70;;;;;;4796671;29;20421;-81
2021/07/30 10:31:05;;;;;;;1.35;0.95;;;25.80;98.40;;;;;;4792325;29;20412;-81
2021/07/30 10:33:52;;;;;;;1.40;1.30;;;26.30;97.40;;;;;;4796097;29;20420;-81
2021/07/30 10:37:15;;;;;;;1.33;1.05;;;26.30;97.50;;;;;;4794150;29;20425;-81
2021/07/30 10:41:36;;;;;;;1.20;1.10;;;26.40;96.60;;;;;;4747141;29;21009;-82
2021/07/30 10:49:41;;;;;;;1.40;1.30;;;27.70;94.70;;;;;;4761801;30;20444;-81
2021/07/30 10:52:48;;;;;;;1.30;1.20;;;27.90;92.60;;;;;;4765614;30;20420;-81
2021/07/30 11:00:11;;;;;;;1.00;1.00;;;27.70;90.90;;;;;;4759086;29;20419;-81
2021/07/30 11:03:07;;;;;;;1.35;1.20;;;28.70;93.40;;;;;;4727327;29;20433;-81
2021/07/30 11:09:57;;;;;;;1.70;1.30;;;28.90;93.20;;;;;;4804948;29;20476;-81
2021/07/30 11:13:05;;;;;;;1.77;1.40;;;29.20;91.30;;;;;;4795236;29;20832;-82
2021/07/30 11:16:14;;;;;;;0.80;0.80;;;29.70;90.30;;;;;;4781276;29;20417;-82
2021/07/30 11:19:17;;;;;;;1.60;1.17;;;29.30;86.60;;;;;;4803155;29;20453;-81
2021/07/30 11:21:59;;;;;;;2.00;1.00;;;28.70;90.10;;;;;;4751360;29;20436;-81
2021/07/30 11:24:59;;;;;;;1.30;1.20;;;29.00;90.60;;;;;;4801988;29;20438;-80
2021/07/30 11:27:57;;;;;;;1.00;1.00;;;29.00;85.50;;;;;;4797584;29;20435;-81
2021/07/30 11:31:16;;;;;;;1.35;1.25;;;28.90;87.00;;;;;;4786735;29;20498;-82
2021/07/30 11:37:50;;;;;;;1.30;1.10;;;29.00;87.90;;;;;;4796343;29;20419;-81
2021/07/30 11:40:31;;;;;;;1.10;1.00;;;28.80;85.20;;;;;;4824720;29;20524;-81
2021/07/30 11:43:07;;;;;;;1.88;1.25;;;28.80;87.90;;;;;;4798268;29;20445;-81
2021/07/30 11:46:31;;;;;;;1.43;1.23;;;29.10;88.00;;;;;;4762996;29;20411;-81
2021/07/30 11:49:10;;;;;;;0.80;0.80;;;29.10;82.70;;;;;;4790197;29;20433;-82
2021/07/30 11:52:00;;;;;;;1.15;1.08;;;29.30;84.80;;;;;;4761351;29;20409;-79
2021/07/30 11:54:26;;;;;;;1.08;1.00;;;28.80;86.00;;;;;;4799537;29;20824;-80
2021/07/30 11:56:53;;;;;;;0.90;0.90;;;29.10;87.60;;;;;;4800855;29;20651;-79
2021/07/30 11:59:18;;;;;;;1.90;1.20;;;29.20;84.70;;;;;;4802939;29;20426;-80
2021/07/30 12:02:02;;;;;;;1.35;1.10;;;28.70;81.30;;;;;;4779958;29;20427;-78
2021/07/30 12:04:28;;;;;;;1.05;1.02;;;28.40;81.60;;;;;;4782677;29;20759;-80
2021/07/30 12:06:55;;;;;;;0.87;0.87;;;28.30;86.80;;;;;;4786043;29;20444;-79
2021/07/30 12:09:21;;;;;;;2.45;1.10;;;28.70;86.00;;;;;;4801374;29;20417;-80
2021/07/30 12:11:51;;;;;;;2.40;1.25;;;29.00;87.90;;;;;;4801310;29;20486;-80
2021/07/30 12:14:17;;;;;;;1.45;1.33;;;29.20;82.50;;;;;;4794987;29;20440;-80
2021/07/30 12:16:43;;;;;;;3.97;1.08;;;29.40;82.60;;;;;;4793642;29;20415;-80
2021/07/30 12:19:08;;;;;;;0.90;0.90;;;29.50;85.20;;;;;;4789387;29;20421;-79
2021/07/30 12:21:34;;;;;;;1.15;1.05;;;29.60;82.30;;;;;;4816912;29;20924;-78
2021/07/30 12:24:06;;;;;;;1.30;1.20;;;29.70;82.30;;;;;;4778961;29;20915;-80
2021/07/30 12:26:36;;;;;;;1.38;1.00;;;29.90;87.20;;;;;;4803272;29;20434;-80
2021/07/30 12:29:02;;;;;;;1.33;1.25;;;30.40;85.60;;;;;;4800912;29;20416;-80
2021/07/30 12:31:29;;;;;;;1.02;1.00;;;30.40;79.60;;;;;;4820395;29;20427;-80
2021/07/30 12:34:16;;;;;;;1.10;1.10;;;30.10;84.10;;;;;;4805413;29;20439;-80
2021/07/30 12:36:43;;;;;;;2.60;1.63;;;30.10;87.40;;;;;;4791119;29;20830;-81
2021/07/30 12:39:09;;;;;;;2.35;1.27;;;30.60;89.50;;;;;;4790861;29;20438;-80
2021/07/30 12:41:35;;;;;;;1.95;1.10;;;31.30;88.70;;;;;;4792166;29;20430;-81
2021/07/30 12:44:10;;;;;;;1.35;1.10;;;31.70;81.00;;;;;;4803223;29;20432;-80
2021/07/30 12:46:37;;;;;;;2.53;1.50;;;31.60;78.00;;;;;;4790353;29;20504;-80
2021/07/30 12:49:04;;;;;;;1.75;1.10;;;31.70;76.00;;;;;;4807268;29;20415;-80
2021/07/30 12:51:30;;;;;;;1.73;1.35;;;31.60;75.70;;;;;;4777616;29;20498;-80
2021/07/30 12:54:15;;;;;;;2.10;1.17;;;31.60;79.90;;;;;;4790576;29;20484;-80
2021/07/30 12:56:53;;;;;;;0.90;0.90;;;31.50;77.20;;;;;;4770036;29;20467;-80
2021/07/30 12:59:20;;;;;;;1.23;1.13;;;31.50;75.70;;;;;;4802740;29;20419;-80
2021/07/30 13:01:46;;;;;;;3.20;1.10;;;31.60;73.00;;;;;;4789655;29;20420;-80
2021/07/30 13:04:13;;;;;;;1.20;1.20;;;31.70;76.50;;;;;;4777493;29;20761;-80
2021/07/30 13:06:39;;;;;;;1.02;1.02;;;31.70;81.10;;;;;;4818465;29;20452;-81
2021/07/30 13:09:05;;;;;;;0.98;0.98;;;31.80;73.70;;;;;;4787433;29;20403;-79
2021/07/30 13:11:31;;;;;;;1.30;1.20;;;32.00;73.80;;;;;;4785557;29;20438;-80
2021/07/30 13:13:57;;;;;;;1.13;1.13;;;32.00;73.40;;;;;;4822032;29;20472;-80
2021/07/30 13:16:23;;;;;;;1.00;1.00;;;32.10;71.70;;;;;;4797858;29;20420;-79
2021/07/30 13:18:49;;;;;;;1.10;1.05;;;31.90;71.40;;;;;;4787535;29;20828;-78
2021/07/30 13:21:15;;;;;;;0.93;0.93;;;31.90;70.00;;;;;;4784849;29;20561;-79
2021/07/30 13:23:40;;;;;;;1.70;1.02;;;32.00;72.80;;;;;;4800533;29;20413;-80
2021/07/30 13:26:06;;;;;;;0.93;0.93;;;32.10;75.50;;;;;;4786895;29;20438;-79
2021/07/30 13:28:31;;;;;;;1.07;1.07;;;32.60;71.90;;;;;;4803673;29;20424;-79
2021/07/30 13:30:57;;;;;;;1.00;1.00;;;32.70;68.60;;;;;;4765857;29;20409;-79
2021/07/30 13:33:23;;;;;;;1.80;1.20;;;32.80;72.60;;;;;;4786532;29;20409;-80
2021/07/30 13:35:50;;;;;;;1.15;1.15;;;33.10;70.60;;;;;;4787297;29;20453;-80
2021/07/30 13:38:15;;;;;;;0.98;0.98;;;33.20;74.30;;;;;;4785786;29;20427;-80